sensor_id;sensor_type;location;lat;lon;timestamp;P1;durP1;ratioP1;P2;durP2;ratioP2
61673;SDS011;47573;43.832;5.974;2023-01-01T00:00:18;794.03;;;595.45;;
61673;SDS011;47573;43.832;5.974;2023-01-01T00:01:58;801.55;;;596.90;;
61673;SDS011;47573;43.832;5.974;2023-01-01T00:03:40;800.75;;;596.03;;
61673;SDS011;47573;43.832;5.974;2023-01-01T00:05:21;795.85;;;593.83;;
61673;SDS011;47573;43.832;5.974;2023-01-01T00:07:01;802.45;;;601.28;;
61673;SDS011;47573;43.832;5.974;2023-01-01T00:08:42;800.53;;;601.08;;
61673;SDS011;47573;43.832;5.974;2023-01-01T00:10:22;804.95;;;601.65;;
61673;SDS011;47573;43.832;5.974;2023-01-01T00:12:03;799.53;;;599.70;;
61673;SDS011;47573;43.832;5.974;2023-01-01T00:13:44;804.63;;;604.55;;
61673;SDS011;47573;43.832;5.974;2023-01-01T00:15:25;801.17;;;601.28;;
61673;SDS011;47573;43.832;5.974;2023-01-01T00:17:06;801.28;;;601.10;;
61673;SDS011;47573;43.832;5.974;2023-01-01T00:18:48;800.58;;;603.53;;
61673;SDS011;47573;43.832;5.974;2023-01-01T00:20:28;807.88;;;606.20;;
61673;SDS011;47573;43.832;5.974;2023-01-01T00:22:09;809.83;;;610.65;;
61673;SDS011;47573;43.832;5.974;2023-01-01T00:23:49;818.38;;;617.85;;
61673;SDS011;47573;43.832;5.974;2023-01-01T00:25:30;848.90;;;640.63;;
61673;SDS011;47573;43.832;5.974;2023-01-01T00:27:10;857.22;;;635.58;;
61673;SDS011;47573;43.832;5.974;2023-01-01T00:28:51;846.83;;;635.50;;
61673;SDS011;47573;43.832;5.974;2023-01-01T00:30:31;848.40;;;638.13;;
61673;SDS011;47573;43.832;5.974;2023-01-01T00:32:12;841.03;;;629.35;;
61673;SDS011;47573;43.832;5.974;2023-01-01T00:33:54;830.05;;;622.65;;
61673;SDS011;47573;43.832;5.974;2023-01-01T00:35:35;840.38;;;622.30;;
61673;SDS011;47573;43.832;5.974;2023-01-01T00:37:16;836.83;;;622.65;;
61673;SDS011;47573;43.832;5.974;2023-01-01T00:38:56;838.20;;;623.17;;
61673;SDS011;47573;43.832;5.974;2023-01-01T00:40:37;823.85;;;619.58;;
61673;SDS011;47573;43.832;5.974;2023-01-01T00:42:17;822.53;;;615.40;;
61673;SDS011;47573;43.832;5.974;2023-01-01T00:43:58;822.90;;;613.80;;
61673;SDS011;47573;43.832;5.974;2023-01-01T00:45:39;807.90;;;612.45;;
61673;SDS011;47573;43.832;5.974;2023-01-01T00:47:19;822.20;;;614.72;;
61673;SDS011;47573;43.832;5.974;2023-01-01T00:49:01;810.83;;;609.47;;
61673;SDS011;47573;43.832;5.974;2023-01-01T00:50:41;744.92;;;552.38;;
61673;SDS011;47573;43.832;5.974;2023-01-01T00:52:22;689.45;;;504.38;;
61673;SDS011;47573;43.832;5.974;2023-01-01T00:54:02;659.83;;;475.25;;
61673;SDS011;47573;43.832;5.974;2023-01-01T00:55:43;612.90;;;426.23;;
61673;SDS011;47573;43.832;5.974;2023-01-01T00:57:24;676.13;;;492.55;;
61673;SDS011;47573;43.832;5.974;2023-01-01T00:59:04;716.28;;;526.03;;
61673;SDS011;47573;43.832;5.974;2023-01-01T01:00:45;718.88;;;530.08;;
61673;SDS011;47573;43.832;5.974;2023-01-01T01:02:25;713.35;;;525.35;;
61673;SDS011;47573;43.832;5.974;2023-01-01T01:04:07;727.08;;;532.78;;
61673;SDS011;47573;43.832;5.974;2023-01-01T01:05:48;731.67;;;540.22;;
61673;SDS011;47573;43.832;5.974;2023-01-01T01:07:31;717.80;;;532.95;;
61673;SDS011;47573;43.832;5.974;2023-01-01T01:09:13;730.85;;;538.92;;
61673;SDS011;47573;43.832;5.974;2023-01-01T01:10:53;726.10;;;533.03;;
61673;SDS011;47573;43.832;5.974;2023-01-01T01:12:34;724.03;;;529.72;;
61673;SDS011;47573;43.832;5.974;2023-01-01T01:14:15;717.50;;;522.85;;
61673;SDS011;47573;43.832;5.974;2023-01-01T01:15:55;701.67;;;508.25;;
61673;SDS011;47573;43.832;5.974;2023-01-01T01:17:36;700.45;;;513.00;;
61673;SDS011;47573;43.832;5.974;2023-01-01T01:19:18;710.67;;;517.42;;
61673;SDS011;47573;43.832;5.974;2023-01-01T01:20:58;695.85;;;503.08;;
61673;SDS011;47573;43.832;5.974;2023-01-01T01:22:39;695.28;;;504.10;;
61673;SDS011;47573;43.832;5.974;2023-01-01T01:24:19;690.15;;;500.95;;
61673;SDS011;47573;43.832;5.974;2023-01-01T01:26:06;687.28;;;493.05;;
61673;SDS011;47573;43.832;5.974;2023-01-01T01:27:48;682.10;;;494.05;;
61673;SDS011;47573;43.832;5.974;2023-01-01T01:29:28;679.65;;;492.13;;
61673;SDS011;47573;43.832;5.974;2023-01-01T01:31:09;686.05;;;487.80;;
61673;SDS011;47573;43.832;5.974;2023-01-01T01:32:49;684.53;;;496.90;;
61673;SDS011;47573;43.832;5.974;2023-01-01T01:36:13;683.58;;;492.40;;
61673;SDS011;47573;43.832;5.974;2023-01-01T01:37:54;681.80;;;490.80;;
61673;SDS011;47573;43.832;5.974;2023-01-01T01:39:35;674.53;;;483.92;;
61673;SDS011;47573;43.832;5.974;2023-01-01T01:41:16;678.92;;;482.95;;
61673;SDS011;47573;43.832;5.974;2023-01-01T01:42:59;672.95;;;483.17;;
61673;SDS011;47573;43.832;5.974;2023-01-01T01:44:47;673.92;;;482.98;;
61673;SDS011;47573;43.832;5.974;2023-01-01T01:46:31;671.33;;;478.55;;
61673;SDS011;47573;43.832;5.974;2023-01-01T01:48:13;668.72;;;471.17;;
61673;SDS011;47573;43.832;5.974;2023-01-01T01:49:58;657.58;;;464.50;;
61673;SDS011;47573;43.832;5.974;2023-01-01T01:51:44;664.90;;;473.77;;
61673;SDS011;47573;43.832;5.974;2023-01-01T01:53:26;666.78;;;465.60;;
61673;SDS011;47573;43.832;5.974;2023-01-01T01:55:09;664.97;;;470.70;;
61673;SDS011;47573;43.832;5.974;2023-01-01T01:56:51;669.33;;;472.73;;
61673;SDS011;47573;43.832;5.974;2023-01-01T01:58:34;665.00;;;467.55;;
61673;SDS011;47573;43.832;5.974;2023-01-01T02:00:15;669.92;;;470.40;;
61673;SDS011;47573;43.832;5.974;2023-01-01T02:01:55;661.35;;;470.70;;
61673;SDS011;47573;43.832;5.974;2023-01-01T02:03:38;668.90;;;466.83;;
61673;SDS011;47573;43.832;5.974;2023-01-01T02:05:24;658.75;;;468.92;;
61673;SDS011;47573;43.832;5.974;2023-01-01T02:07:05;652.03;;;455.90;;
61673;SDS011;47573;43.832;5.974;2023-01-01T02:08:46;656.30;;;460.90;;
61673;SDS011;47573;43.832;5.974;2023-01-01T02:10:29;657.08;;;459.00;;
61673;SDS011;47573;43.832;5.974;2023-01-01T02:12:09;653.38;;;457.80;;
61673;SDS011;47573;43.832;5.974;2023-01-01T02:13:50;657.63;;;460.58;;
61673;SDS011;47573;43.832;5.974;2023-01-01T02:15:33;652.42;;;459.73;;
61673;SDS011;47573;43.832;5.974;2023-01-01T02:17:20;643.70;;;454.25;;
61673;SDS011;47573;43.832;5.974;2023-01-01T02:19:09;645.95;;;453.05;;
61673;SDS011;47573;43.832;5.974;2023-01-01T02:20:58;642.05;;;442.10;;
61673;SDS011;47573;43.832;5.974;2023-01-01T02:22:52;637.85;;;446.63;;
61673;SDS011;47573;43.832;5.974;2023-01-01T02:24:58;637.17;;;437.50;;
61673;SDS011;47573;43.832;5.974;2023-01-01T02:26:51;636.53;;;442.70;;
61673;SDS011;47573;43.832;5.974;2023-01-01T02:28:43;638.97;;;442.30;;
61673;SDS011;47573;43.832;5.974;2023-01-01T02:30:37;634.22;;;436.33;;
61673;SDS011;47573;43.832;5.974;2023-01-01T02:32:21;633.67;;;435.27;;
61673;SDS011;47573;43.832;5.974;2023-01-01T02:34:06;625.55;;;432.48;;
61673;SDS011;47573;43.832;5.974;2023-01-01T02:35:52;628.90;;;428.38;;
61673;SDS011;47573;43.832;5.974;2023-01-01T02:37:37;629.10;;;427.45;;
61673;SDS011;47573;43.832;5.974;2023-01-01T02:39:18;630.65;;;429.25;;
61673;SDS011;47573;43.832;5.974;2023-01-01T02:41:03;625.90;;;424.35;;
61673;SDS011;47573;43.832;5.974;2023-01-01T02:42:47;622.20;;;420.73;;
61673;SDS011;47573;43.832;5.974;2023-01-01T02:44:29;620.60;;;418.13;;
61673;SDS011;47573;43.832;5.974;2023-01-01T02:46:13;616.05;;;413.98;;
61673;SDS011;47573;43.832;5.974;2023-01-01T02:47:54;618.08;;;414.63;;
61673;SDS011;47573;43.832;5.974;2023-01-01T02:49:35;617.30;;;416.27;;
61673;SDS011;47573;43.832;5.974;2023-01-01T02:51:21;621.03;;;418.58;;
61673;SDS011;47573;43.832;5.974;2023-01-01T02:53:11;603.15;;;405.80;;
61673;SDS011;47573;43.832;5.974;2023-01-01T02:55:00;606.20;;;398.75;;
61673;SDS011;47573;43.832;5.974;2023-01-01T02:56:46;601.00;;;395.13;;
61673;SDS011;47573;43.832;5.974;2023-01-01T02:58:31;600.90;;;388.60;;
61673;SDS011;47573;43.832;5.974;2023-01-01T03:00:17;595.53;;;392.83;;
61673;SDS011;47573;43.832;5.974;2023-01-01T03:02:01;590.90;;;383.42;;
61673;SDS011;47573;43.832;5.974;2023-01-01T03:03:50;587.03;;;384.17;;
61673;SDS011;47573;43.832;5.974;2023-01-01T03:05:39;589.80;;;388.02;;
61673;SDS011;47573;43.832;5.974;2023-01-01T03:07:25;590.47;;;380.00;;
61673;SDS011;47573;43.832;5.974;2023-01-01T03:09:17;589.53;;;380.58;;
61673;SDS011;47573;43.832;5.974;2023-01-01T03:11:03;593.85;;;387.02;;
61673;SDS011;47573;43.832;5.974;2023-01-01T03:12:48;586.10;;;377.33;;
61673;SDS011;47573;43.832;5.974;2023-01-01T03:14:37;580.47;;;377.17;;
61673;SDS011;47573;43.832;5.974;2023-01-01T03:16:26;585.85;;;379.17;;
61673;SDS011;47573;43.832;5.974;2023-01-01T03:18:11;578.08;;;374.50;;
61673;SDS011;47573;43.832;5.974;2023-01-01T03:19:58;582.35;;;374.65;;
61673;SDS011;47573;43.832;5.974;2023-01-01T03:21:41;572.83;;;370.60;;
61673;SDS011;47573;43.832;5.974;2023-01-01T03:23:24;576.75;;;369.85;;
61673;SDS011;47573;43.832;5.974;2023-01-01T03:25:09;560.97;;;363.27;;
61673;SDS011;47573;43.832;5.974;2023-01-01T03:26:54;565.70;;;362.15;;
61673;SDS011;47573;43.832;5.974;2023-01-01T03:28:38;558.42;;;362.10;;
61673;SDS011;47573;43.832;5.974;2023-01-01T03:30:22;560.08;;;359.80;;
61673;SDS011;47573;43.832;5.974;2023-01-01T03:32:05;565.22;;;365.58;;
61673;SDS011;47573;43.832;5.974;2023-01-01T03:33:50;554.22;;;355.98;;
61673;SDS011;47573;43.832;5.974;2023-01-01T03:35:36;559.22;;;355.30;;
61673;SDS011;47573;43.832;5.974;2023-01-01T03:37:21;552.70;;;353.58;;
61673;SDS011;47573;43.832;5.974;2023-01-01T03:39:05;548.70;;;352.00;;
61673;SDS011;47573;43.832;5.974;2023-01-01T03:40:51;550.83;;;353.67;;
61673;SDS011;47573;43.832;5.974;2023-01-01T03:42:36;542.95;;;347.35;;
61673;SDS011;47573;43.832;5.974;2023-01-01T03:44:22;537.67;;;344.60;;
61673;SDS011;47573;43.832;5.974;2023-01-01T03:46:06;534.92;;;338.02;;
61673;SDS011;47573;43.832;5.974;2023-01-01T03:47:51;529.78;;;331.88;;
61673;SDS011;47573;43.832;5.974;2023-01-01T03:49:31;533.47;;;334.15;;
61673;SDS011;47573;43.832;5.974;2023-01-01T03:51:14;526.42;;;328.48;;
61673;SDS011;47573;43.832;5.974;2023-01-01T03:53:01;526.17;;;328.90;;
61673;SDS011;47573;43.832;5.974;2023-01-01T03:54:49;524.42;;;325.20;;
61673;SDS011;47573;43.832;5.974;2023-01-01T03:56:36;515.83;;;323.05;;
61673;SDS011;47573;43.832;5.974;2023-01-01T03:58:22;515.55;;;321.90;;
61673;SDS011;47573;43.832;5.974;2023-01-01T04:00:11;516.63;;;317.15;;
61673;SDS011;47573;43.832;5.974;2023-01-01T04:01:55;512.55;;;314.25;;
61673;SDS011;47573;43.832;5.974;2023-01-01T04:03:38;507.63;;;309.50;;
61673;SDS011;47573;43.832;5.974;2023-01-01T04:05:20;495.35;;;301.88;;
61673;SDS011;47573;43.832;5.974;2023-01-01T04:07:02;497.13;;;303.48;;
61673;SDS011;47573;43.832;5.974;2023-01-01T04:08:43;497.83;;;300.65;;
61673;SDS011;47573;43.832;5.974;2023-01-01T04:10:25;493.30;;;303.45;;
61673;SDS011;47573;43.832;5.974;2023-01-01T04:12:09;497.40;;;299.23;;
61673;SDS011;47573;43.832;5.974;2023-01-01T04:13:50;495.35;;;297.25;;
61673;SDS011;47573;43.832;5.974;2023-01-01T04:15:30;497.20;;;304.63;;
61673;SDS011;47573;43.832;5.974;2023-01-01T04:17:11;503.42;;;307.42;;
61673;SDS011;47573;43.832;5.974;2023-01-01T04:18:53;505.08;;;308.85;;
61673;SDS011;47573;43.832;5.974;2023-01-01T04:20:34;496.42;;;303.35;;
61673;SDS011;47573;43.832;5.974;2023-01-01T04:22:14;507.50;;;309.58;;
61673;SDS011;47573;43.832;5.974;2023-01-01T04:23:54;501.00;;;303.65;;
61673;SDS011;47573;43.832;5.974;2023-01-01T04:25:35;496.80;;;306.00;;
61673;SDS011;47573;43.832;5.974;2023-01-01T04:27:15;497.85;;;309.45;;
61673;SDS011;47573;43.832;5.974;2023-01-01T04:28:56;504.65;;;307.90;;
61673;SDS011;47573;43.832;5.974;2023-01-01T04:30:36;502.40;;;306.85;;
61673;SDS011;47573;43.832;5.974;2023-01-01T04:32:17;500.20;;;306.52;;
61673;SDS011;47573;43.832;5.974;2023-01-01T04:33:58;499.63;;;304.75;;
61673;SDS011;47573;43.832;5.974;2023-01-01T04:35:39;497.30;;;303.13;;
61673;SDS011;47573;43.832;5.974;2023-01-01T04:37:19;496.13;;;304.70;;
61673;SDS011;47573;43.832;5.974;2023-01-01T04:39:00;500.23;;;303.83;;
61673;SDS011;47573;43.832;5.974;2023-01-01T04:40:41;493.65;;;300.30;;
61673;SDS011;47573;43.832;5.974;2023-01-01T04:42:21;489.17;;;296.73;;
61673;SDS011;47573;43.832;5.974;2023-01-01T04:44:02;489.13;;;294.08;;
61673;SDS011;47573;43.832;5.974;2023-01-01T04:45:43;481.90;;;292.23;;
61673;SDS011;47573;43.832;5.974;2023-01-01T04:47:23;487.65;;;294.27;;
61673;SDS011;47573;43.832;5.974;2023-01-01T04:49:05;483.08;;;292.90;;
61673;SDS011;47573;43.832;5.974;2023-01-01T04:50:52;480.70;;;289.05;;
61673;SDS011;47573;43.832;5.974;2023-01-01T04:52:33;478.80;;;286.02;;
61673;SDS011;47573;43.832;5.974;2023-01-01T04:54:13;478.25;;;284.23;;
61673;SDS011;47573;43.832;5.974;2023-01-01T04:55:54;476.48;;;285.98;;
61673;SDS011;47573;43.832;5.974;2023-01-01T04:57:34;476.52;;;286.75;;
61673;SDS011;47573;43.832;5.974;2023-01-01T04:59:15;473.73;;;283.80;;
61673;SDS011;47573;43.832;5.974;2023-01-01T05:00:55;474.23;;;283.40;;
61673;SDS011;47573;43.832;5.974;2023-01-01T05:02:36;467.33;;;280.08;;
61673;SDS011;47573;43.832;5.974;2023-01-01T05:04:18;460.17;;;276.90;;
61673;SDS011;47573;43.832;5.974;2023-01-01T05:05:59;452.15;;;269.80;;
61673;SDS011;47573;43.832;5.974;2023-01-01T05:07:40;460.20;;;272.63;;
61673;SDS011;47573;43.832;5.974;2023-01-01T05:09:20;463.33;;;272.95;;
61673;SDS011;47573;43.832;5.974;2023-01-01T05:11:01;465.15;;;273.40;;
61673;SDS011;47573;43.832;5.974;2023-01-01T05:12:42;456.15;;;270.25;;
61673;SDS011;47573;43.832;5.974;2023-01-01T05:14:23;462.02;;;271.60;;
61673;SDS011;47573;43.832;5.974;2023-01-01T05:16:04;447.10;;;265.17;;
61673;SDS011;47573;43.832;5.974;2023-01-01T05:17:45;455.45;;;269.30;;
61673;SDS011;47573;43.832;5.974;2023-01-01T05:19:27;452.95;;;265.23;;
61673;SDS011;47573;43.832;5.974;2023-01-01T05:21:09;446.80;;;261.80;;
61673;SDS011;47573;43.832;5.974;2023-01-01T05:22:51;447.55;;;262.98;;
61673;SDS011;47573;43.832;5.974;2023-01-01T05:24:31;439.27;;;258.02;;
61673;SDS011;47573;43.832;5.974;2023-01-01T05:26:13;443.55;;;259.30;;
61673;SDS011;47573;43.832;5.974;2023-01-01T05:27:57;443.27;;;259.08;;
61673;SDS011;47573;43.832;5.974;2023-01-01T05:29:37;443.05;;;258.20;;
61673;SDS011;47573;43.832;5.974;2023-01-01T05:31:19;435.05;;;259.40;;
61673;SDS011;47573;43.832;5.974;2023-01-01T05:33:02;429.90;;;255.13;;
61673;SDS011;47573;43.832;5.974;2023-01-01T05:34:44;439.52;;;258.55;;
61673;SDS011;47573;43.832;5.974;2023-01-01T05:36:25;431.38;;;255.15;;
61673;SDS011;47573;43.832;5.974;2023-01-01T05:38:07;426.88;;;252.32;;
61673;SDS011;47573;43.832;5.974;2023-01-01T05:39:47;425.23;;;251.73;;
61673;SDS011;47573;43.832;5.974;2023-01-01T05:41:28;421.70;;;249.60;;
61673;SDS011;47573;43.832;5.974;2023-01-01T05:43:08;424.80;;;250.00;;
61673;SDS011;47573;43.832;5.974;2023-01-01T05:44:49;421.85;;;249.07;;
61673;SDS011;47573;43.832;5.974;2023-01-01T05:46:29;418.25;;;247.95;;
61673;SDS011;47573;43.832;5.974;2023-01-01T05:48:10;418.58;;;249.98;;
61673;SDS011;47573;43.832;5.974;2023-01-01T05:49:52;417.15;;;247.10;;
61673;SDS011;47573;43.832;5.974;2023-01-01T05:51:32;419.27;;;247.15;;
61673;SDS011;47573;43.832;5.974;2023-01-01T05:53:13;403.35;;;238.30;;
61673;SDS011;47573;43.832;5.974;2023-01-01T05:54:53;416.38;;;239.48;;
61673;SDS011;47573;43.832;5.974;2023-01-01T05:56:34;409.70;;;239.23;;
61673;SDS011;47573;43.832;5.974;2023-01-01T05:58:14;399.85;;;234.63;;
61673;SDS011;47573;43.832;5.974;2023-01-01T05:59:55;399.95;;;234.82;;
61673;SDS011;47573;43.832;5.974;2023-01-01T06:01:35;399.17;;;234.35;;
61673;SDS011;47573;43.832;5.974;2023-01-01T06:03:16;395.73;;;229.38;;
61673;SDS011;47573;43.832;5.974;2023-01-01T06:04:57;387.20;;;227.65;;
61673;SDS011;47573;43.832;5.974;2023-01-01T06:06:38;396.67;;;232.50;;
61673;SDS011;47573;43.832;5.974;2023-01-01T06:08:18;389.50;;;228.52;;
61673;SDS011;47573;43.832;5.974;2023-01-01T06:09:59;386.33;;;224.80;;
61673;SDS011;47573;43.832;5.974;2023-01-01T06:11:39;384.30;;;226.43;;
61673;SDS011;47573;43.832;5.974;2023-01-01T06:13:20;385.83;;;225.57;;
61673;SDS011;47573;43.832;5.974;2023-01-01T06:15:00;383.90;;;221.75;;
61673;SDS011;47573;43.832;5.974;2023-01-01T06:16:41;379.42;;;218.48;;
61673;SDS011;47573;43.832;5.974;2023-01-01T06:18:21;375.83;;;223.30;;
61673;SDS011;47573;43.832;5.974;2023-01-01T06:20:03;377.48;;;218.70;;
61673;SDS011;47573;43.832;5.974;2023-01-01T06:21:45;371.48;;;216.98;;
61673;SDS011;47573;43.832;5.974;2023-01-01T06:23:25;364.38;;;212.55;;
61673;SDS011;47573;43.832;5.974;2023-01-01T06:25:06;375.35;;;216.45;;
61673;SDS011;47573;43.832;5.974;2023-01-01T06:26:47;366.13;;;213.00;;
61673;SDS011;47573;43.832;5.974;2023-01-01T06:28:28;362.20;;;211.35;;
61673;SDS011;47573;43.832;5.974;2023-01-01T06:30:09;358.33;;;210.43;;
61673;SDS011;47573;43.832;5.974;2023-01-01T06:31:50;355.35;;;206.38;;
61673;SDS011;47573;43.832;5.974;2023-01-01T06:33:31;359.20;;;208.38;;
61673;SDS011;47573;43.832;5.974;2023-01-01T06:35:13;352.42;;;202.73;;
61673;SDS011;47573;43.832;5.974;2023-01-01T06:36:53;348.55;;;203.07;;
61673;SDS011;47573;43.832;5.974;2023-01-01T06:38:37;351.02;;;202.98;;
61673;SDS011;47573;43.832;5.974;2023-01-01T06:40:19;350.52;;;198.52;;
61673;SDS011;47573;43.832;5.974;2023-01-01T06:42:00;355.45;;;199.93;;
61673;SDS011;47573;43.832;5.974;2023-01-01T06:43:40;351.08;;;201.60;;
61673;SDS011;47573;43.832;5.974;2023-01-01T06:45:21;346.23;;;201.10;;
61673;SDS011;47573;43.832;5.974;2023-01-01T06:47:02;343.15;;;197.48;;
61673;SDS011;47573;43.832;5.974;2023-01-01T06:48:42;342.63;;;199.90;;
61673;SDS011;47573;43.832;5.974;2023-01-01T06:50:25;343.20;;;197.70;;
61673;SDS011;47573;43.832;5.974;2023-01-01T06:52:05;349.75;;;195.68;;
61673;SDS011;47573;43.832;5.974;2023-01-01T06:53:46;350.42;;;194.00;;
61673;SDS011;47573;43.832;5.974;2023-01-01T06:55:27;344.35;;;192.25;;
61673;SDS011;47573;43.832;5.974;2023-01-01T06:57:07;343.10;;;193.55;;
61673;SDS011;47573;43.832;5.974;2023-01-01T06:58:48;329.33;;;189.00;;
61673;SDS011;47573;43.832;5.974;2023-01-01T07:00:28;334.45;;;187.38;;
61673;SDS011;47573;43.832;5.974;2023-01-01T07:02:09;331.45;;;190.52;;
61673;SDS011;47573;43.832;5.974;2023-01-01T07:03:50;333.75;;;189.18;;
61673;SDS011;47573;43.832;5.974;2023-01-01T07:05:34;338.92;;;192.05;;
61673;SDS011;47573;43.832;5.974;2023-01-01T07:07:14;325.77;;;183.25;;
61673;SDS011;47573;43.832;5.974;2023-01-01T07:08:55;321.73;;;182.98;;
61673;SDS011;47573;43.832;5.974;2023-01-01T07:10:36;326.73;;;183.80;;
61673;SDS011;47573;43.832;5.974;2023-01-01T07:12:16;324.55;;;185.43;;
61673;SDS011;47573;43.832;5.974;2023-01-01T07:13:57;330.60;;;182.13;;
61673;SDS011;47573;43.832;5.974;2023-01-01T07:15:37;314.10;;;178.70;;
61673;SDS011;47573;43.832;5.974;2023-01-01T07:17:18;321.17;;;179.30;;
61673;SDS011;47573;43.832;5.974;2023-01-01T07:18:58;319.50;;;180.85;;
61673;SDS011;47573;43.832;5.974;2023-01-01T07:20:40;320.60;;;179.65;;
61673;SDS011;47573;43.832;5.974;2023-01-01T07:22:21;317.73;;;182.02;;
61673;SDS011;47573;43.832;5.974;2023-01-01T07:24:02;316.35;;;176.38;;
61673;SDS011;47573;43.832;5.974;2023-01-01T07:25:44;314.58;;;180.60;;
61673;SDS011;47573;43.832;5.974;2023-01-01T07:27:24;305.98;;;176.43;;
61673;SDS011;47573;43.832;5.974;2023-01-01T07:29:05;317.92;;;178.40;;
61673;SDS011;47573;43.832;5.974;2023-01-01T07:30:46;305.75;;;172.70;;
61673;SDS011;47573;43.832;5.974;2023-01-01T07:32:27;305.35;;;172.55;;
61673;SDS011;47573;43.832;5.974;2023-01-01T07:34:08;307.13;;;172.48;;
61673;SDS011;47573;43.832;5.974;2023-01-01T07:35:53;297.02;;;169.00;;
61673;SDS011;47573;43.832;5.974;2023-01-01T07:37:33;299.70;;;168.40;;
61673;SDS011;47573;43.832;5.974;2023-01-01T07:39:14;302.92;;;170.45;;
61673;SDS011;47573;43.832;5.974;2023-01-01T07:40:54;303.85;;;169.60;;
61673;SDS011;47573;43.832;5.974;2023-01-01T07:42:35;297.67;;;167.35;;
61673;SDS011;47573;43.832;5.974;2023-01-01T07:44:15;296.38;;;166.85;;
61673;SDS011;47573;43.832;5.974;2023-01-01T07:45:56;288.70;;;164.00;;
61673;SDS011;47573;43.832;5.974;2023-01-01T07:47:36;291.58;;;163.70;;
61673;SDS011;47573;43.832;5.974;2023-01-01T07:49:17;287.77;;;159.88;;
61673;SDS011;47573;43.832;5.974;2023-01-01T07:50:58;292.60;;;161.80;;
61673;SDS011;47573;43.832;5.974;2023-01-01T07:52:39;288.55;;;161.23;;
61673;SDS011;47573;43.832;5.974;2023-01-01T07:54:19;288.73;;;160.55;;
61673;SDS011;47573;43.832;5.974;2023-01-01T07:56:00;283.63;;;158.77;;
61673;SDS011;47573;43.832;5.974;2023-01-01T07:57:41;287.55;;;159.10;;
61673;SDS011;47573;43.832;5.974;2023-01-01T07:59:21;278.48;;;156.50;;
61673;SDS011;47573;43.832;5.974;2023-01-01T08:01:02;288.30;;;158.25;;
61673;SDS011;47573;43.832;5.974;2023-01-01T08:02:42;285.17;;;159.20;;
61673;SDS011;47573;43.832;5.974;2023-01-01T08:04:23;282.40;;;157.20;;
61673;SDS011;47573;43.832;5.974;2023-01-01T08:06:06;275.63;;;155.27;;
61673;SDS011;47573;43.832;5.974;2023-01-01T08:07:48;276.75;;;154.40;;
61673;SDS011;47573;43.832;5.974;2023-01-01T08:09:30;274.17;;;152.60;;
61673;SDS011;47573;43.832;5.974;2023-01-01T08:11:10;280.35;;;156.50;;
61673;SDS011;47573;43.832;5.974;2023-01-01T08:12:50;273.65;;;151.73;;
61673;SDS011;47573;43.832;5.974;2023-01-01T08:14:31;270.15;;;149.98;;
61673;SDS011;47573;43.832;5.974;2023-01-01T08:16:11;268.80;;;149.05;;
61673;SDS011;47573;43.832;5.974;2023-01-01T08:17:54;268.80;;;151.05;;
61673;SDS011;47573;43.832;5.974;2023-01-01T08:19:35;270.25;;;148.20;;
61673;SDS011;47573;43.832;5.974;2023-01-01T08:21:17;258.85;;;145.13;;
61673;SDS011;47573;43.832;5.974;2023-01-01T08:22:58;258.95;;;144.50;;
61673;SDS011;47573;43.832;5.974;2023-01-01T08:24:38;260.35;;;145.90;;
61673;SDS011;47573;43.832;5.974;2023-01-01T08:26:25;254.95;;;142.98;;
61673;SDS011;47573;43.832;5.974;2023-01-01T08:28:07;257.05;;;143.13;;
61673;SDS011;47573;43.832;5.974;2023-01-01T08:29:47;258.95;;;141.60;;
61673;SDS011;47573;43.832;5.974;2023-01-01T08:31:28;254.85;;;143.80;;
61673;SDS011;47573;43.832;5.974;2023-01-01T08:33:09;259.08;;;145.13;;
61673;SDS011;47573;43.832;5.974;2023-01-01T08:34:49;255.32;;;142.43;;
61673;SDS011;47573;43.832;5.974;2023-01-01T08:36:31;256.70;;;142.88;;
61673;SDS011;47573;43.832;5.974;2023-01-01T08:38:12;252.02;;;140.88;;
61673;SDS011;47573;43.832;5.974;2023-01-01T08:39:52;254.27;;;141.98;;
61673;SDS011;47573;43.832;5.974;2023-01-01T08:41:33;253.52;;;142.63;;
61673;SDS011;47573;43.832;5.974;2023-01-01T08:43:13;248.73;;;139.43;;
61673;SDS011;47573;43.832;5.974;2023-01-01T08:44:54;247.65;;;141.10;;
61673;SDS011;47573;43.832;5.974;2023-01-01T08:46:34;246.55;;;140.18;;
61673;SDS011;47573;43.832;5.974;2023-01-01T08:48:15;245.70;;;137.43;;
61673;SDS011;47573;43.832;5.974;2023-01-01T08:49:55;243.15;;;137.63;;
61673;SDS011;47573;43.832;5.974;2023-01-01T08:51:37;241.38;;;135.45;;
61673;SDS011;47573;43.832;5.974;2023-01-01T08:53:17;240.80;;;135.80;;
61673;SDS011;47573;43.832;5.974;2023-01-01T08:54:58;243.43;;;136.02;;
61673;SDS011;47573;43.832;5.974;2023-01-01T08:56:38;244.65;;;136.00;;
61673;SDS011;47573;43.832;5.974;2023-01-01T08:58:19;237.63;;;132.40;;
61673;SDS011;47573;43.832;5.974;2023-01-01T08:59:59;240.32;;;135.00;;
61673;SDS011;47573;43.832;5.974;2023-01-01T09:01:40;237.38;;;133.73;;
61673;SDS011;47573;43.832;5.974;2023-01-01T09:03:20;228.57;;;131.93;;
61673;SDS011;47573;43.832;5.974;2023-01-01T09:05:01;232.88;;;131.88;;
61673;SDS011;47573;43.832;5.974;2023-01-01T09:06:43;230.63;;;130.50;;
61673;SDS011;47573;43.832;5.974;2023-01-01T09:08:23;227.35;;;130.65;;
61673;SDS011;47573;43.832;5.974;2023-01-01T09:10:05;227.68;;;129.07;;
61673;SDS011;47573;43.832;5.974;2023-01-01T09:11:49;230.10;;;132.05;;
61673;SDS011;47573;43.832;5.974;2023-01-01T09:13:30;229.07;;;127.15;;
61673;SDS011;47573;43.832;5.974;2023-01-01T09:15:12;221.68;;;125.43;;
61673;SDS011;47573;43.832;5.974;2023-01-01T09:16:53;221.95;;;125.63;;
61673;SDS011;47573;43.832;5.974;2023-01-01T09:18:34;221.82;;;124.88;;
61673;SDS011;47573;43.832;5.974;2023-01-01T09:20:14;217.40;;;125.00;;
61673;SDS011;47573;43.832;5.974;2023-01-01T09:21:56;218.50;;;124.43;;
61673;SDS011;47573;43.832;5.974;2023-01-01T09:23:37;216.32;;;122.22;;
61673;SDS011;47573;43.832;5.974;2023-01-01T09:25:17;215.05;;;124.28;;
61673;SDS011;47573;43.832;5.974;2023-01-01T09:26:58;215.43;;;121.85;;
61673;SDS011;47573;43.832;5.974;2023-01-01T09:28:38;212.07;;;120.70;;
61673;SDS011;47573;43.832;5.974;2023-01-01T09:30:19;215.77;;;121.35;;
61673;SDS011;47573;43.832;5.974;2023-01-01T09:31:59;210.65;;;120.60;;
61673;SDS011;47573;43.832;5.974;2023-01-01T09:33:40;212.02;;;120.22;;
61673;SDS011;47573;43.832;5.974;2023-01-01T09:35:20;213.25;;;118.13;;
61673;SDS011;47573;43.832;5.974;2023-01-01T09:37:02;192.13;;;109.97;;
61673;SDS011;47573;43.832;5.974;2023-01-01T09:38:47;168.75;;;92.82;;
61673;SDS011;47573;43.832;5.974;2023-01-01T09:40:29;145.30;;;80.07;;